createdAt,value
2022-10-23T00:00:15.734Z,28.67
2022-10-23T00:02:42.404Z,33.30
2022-10-23T00:05:09.222Z,30.88
2022-10-23T00:07:35.703Z,31.90
2022-10-23T00:10:02.340Z,30.97
2022-10-23T00:12:28.774Z,33.08
2022-10-23T00:14:55.195Z,32.13
2022-10-23T00:17:21.558Z,29.35
2022-10-23T00:19:47.926Z,29.88
2022-10-23T00:22:14.302Z,35.27
2022-10-23T00:24:40.675Z,29.38
2022-10-23T00:27:07.077Z,28.70
2022-10-23T00:29:33.499Z,30.00
2022-10-23T00:31:59.912Z,29.40
2022-10-23T00:34:26.300Z,30.93
2022-10-23T00:36:52.719Z,27.83
2022-10-23T00:39:19.132Z,35.88
2022-10-23T00:41:45.525Z,30.95
2022-10-23T00:44:18.003Z,30.15
2022-10-23T00:46:44.589Z,29.00
2022-10-23T00:51:50.085Z,31.15
2022-10-23T00:54:26.622Z,30.65
2022-10-23T00:56:56.130Z,28.75
2022-10-23T00:59:23.082Z,33.83
2022-10-23T01:01:49.757Z,28.73
2022-10-23T01:04:16.509Z,29.55
2022-10-23T01:07:07.012Z,25.90
2022-10-23T01:09:53.538Z,27.70
2022-10-23T01:12:30.637Z,26.17
2022-10-23T01:15:31.996Z,24.38
2022-10-23T01:18:07.547Z,26.30
2022-10-23T01:20:40.989Z,29.67
2022-10-23T01:23:35.295Z,26.20
2022-10-23T01:26:32.709Z,28.17
2022-10-23T01:29:14.268Z,30.67
2022-10-23T01:31:49.170Z,27.42
2022-10-23T01:34:27.697Z,30.02
2022-10-23T01:36:55.437Z,28.63
2022-10-23T01:39:31.043Z,26.30
2022-10-23T01:42:08.500Z,28.13
2022-10-23T01:44:41.789Z,28.15
2022-10-23T01:47:12.218Z,30.48
2022-10-23T01:49:41.990Z,29.98
2022-10-23T01:52:12.985Z,30.87
2022-10-23T01:54:42.946Z,28.58
2022-10-23T01:57:13.003Z,29.35
2022-10-23T01:59:44.342Z,26.73
2022-10-23T02:02:13.327Z,27.70
2022-10-23T02:04:50.811Z,31.53
2022-10-23T02:07:17.293Z,28.67
2022-10-23T02:09:43.748Z,30.40
2022-10-23T02:12:45.485Z,30.10
2022-10-23T02:15:20.103Z,38.35
2022-10-23T02:18:13.155Z,31.60
2022-10-23T02:20:46.442Z,32.05
2022-10-23T02:23:27.255Z,29.20
2022-10-23T02:26:00.308Z,29.70
2022-10-23T02:28:34.897Z,27.02
2022-10-23T02:31:04.314Z,31.43
2022-10-23T02:33:32.645Z,30.60
2022-10-23T02:35:59.051Z,33.17
2022-10-23T02:38:36.006Z,29.42
2022-10-23T02:41:17.344Z,25.10
2022-10-23T02:43:57.392Z,26.63
2022-10-23T02:46:54.444Z,25.90
2022-10-23T02:50:00.193Z,24.27
2022-10-23T02:52:38.470Z,24.77
2022-10-23T02:55:22.782Z,24.33
2022-10-23T02:58:07.323Z,24.80
2022-10-23T03:00:37.402Z,25.40
2022-10-23T03:03:14.802Z,22.00
2022-10-23T03:05:42.065Z,22.35
2022-10-23T03:08:10.325Z,21.73
2022-10-23T03:10:37.136Z,24.57
2022-10-23T03:13:04.008Z,21.98
2022-10-23T03:15:30.700Z,21.83
2022-10-23T03:17:57.135Z,21.23
2022-10-23T03:20:23.548Z,22.30
2022-10-23T03:22:49.972Z,21.93
2022-10-23T03:25:16.376Z,23.58
2022-10-23T03:27:42.763Z,20.95
2022-10-23T03:30:10.027Z,20.33
2022-10-23T03:32:36.605Z,22.52
2022-10-23T03:35:04.031Z,21.30
2022-10-23T03:37:30.415Z,20.08
2022-10-23T03:39:56.818Z,19.27
2022-10-23T03:42:23.220Z,20.92
2022-10-23T03:44:49.597Z,20.92
2022-10-23T03:47:15.986Z,19.50
2022-10-23T03:49:42.416Z,24.05
2022-10-23T03:52:08.892Z,20.85
2022-10-23T03:54:35.697Z,18.75
2022-10-23T03:57:02.379Z,19.65
2022-10-23T03:59:29.370Z,21.13
2022-10-23T04:01:55.996Z,17.58
2022-10-23T04:04:22.511Z,19.40
2022-10-23T04:06:48.906Z,16.27
2022-10-23T04:09:15.834Z,16.38
2022-10-23T04:11:42.289Z,21.37
2022-10-23T04:14:12.104Z,18.63
2022-10-23T04:16:38.811Z,18.92
2022-10-23T04:19:05.257Z,20.27
2022-10-23T04:21:31.693Z,21.80
2022-10-23T04:23:58.062Z,17.10
2022-10-23T04:26:24.555Z,21.80
2022-10-23T04:28:50.980Z,18.13
2022-10-23T04:31:17.379Z,18.25
2022-10-23T04:33:43.879Z,18.92
2022-10-23T04:36:10.421Z,21.47
2022-10-23T04:38:36.855Z,16.67
2022-10-23T04:41:03.527Z,17.63
2022-10-23T04:43:29.946Z,17.00
2022-10-23T04:45:56.319Z,17.27
2022-10-23T04:48:25.587Z,16.90
2022-10-23T04:51:05.243Z,17.40
2022-10-23T04:53:32.062Z,18.40
2022-10-23T04:55:59.836Z,16.17
2022-10-23T04:58:27.924Z,15.68
2022-10-23T05:00:54.514Z,17.93
2022-10-23T05:03:23.895Z,17.88
2022-10-23T05:05:53.469Z,15.18
2022-10-23T05:08:20.121Z,17.45
2022-10-23T05:10:48.937Z,17.52
2022-10-23T05:13:17.245Z,17.73
2022-10-23T05:18:31.063Z,19.77
2022-10-23T05:21:02.273Z,16.58
2022-10-23T05:23:31.963Z,20.67
2022-10-23T05:25:58.382Z,21.17
2022-10-23T05:28:24.822Z,19.00
2022-10-23T05:30:51.313Z,18.45
2022-10-23T05:33:17.924Z,19.25
2022-10-23T05:35:44.924Z,17.02
2022-10-23T05:38:12.969Z,17.63
2022-10-23T05:43:10.723Z,18.77
2022-10-23T05:45:37.140Z,18.48
2022-10-23T05:48:11.071Z,19.13
2022-10-23T05:50:43.330Z,17.87
2022-10-23T05:53:10.745Z,16.55
2022-10-23T05:55:37.233Z,17.35
2022-10-23T05:58:04.288Z,16.30
2022-10-23T06:00:30.847Z,15.85
2022-10-23T06:03:00.042Z,14.73
2022-10-23T06:05:26.597Z,17.00
2022-10-23T06:07:57.406Z,16.30
2022-10-23T06:10:23.824Z,17.67
2022-10-23T06:12:51.156Z,21.35
2022-10-23T06:15:17.816Z,16.23
2022-10-23T06:17:44.466Z,17.00
2022-10-23T06:20:11.346Z,15.15
2022-10-23T06:22:37.726Z,17.20
2022-10-23T06:25:04.494Z,16.90
2022-10-23T06:27:30.860Z,16.17
2022-10-23T06:29:57.237Z,19.42
2022-10-23T06:32:23.629Z,17.17
2022-10-23T06:34:49.987Z,18.17
2022-10-23T06:37:16.393Z,17.08
2022-10-23T06:39:42.819Z,12.70
2022-10-23T06:42:09.223Z,17.02
2022-10-23T06:44:35.593Z,15.27
2022-10-23T06:47:01.975Z,16.77
2022-10-23T06:49:31.442Z,18.23
2022-10-23T06:51:57.854Z,15.40
2022-10-23T06:54:24.237Z,18.83
2022-10-23T06:56:51.187Z,17.13
2022-10-23T06:59:17.616Z,17.45
2022-10-23T07:01:44.170Z,18.25
2022-10-23T07:04:11.138Z,15.37
2022-10-23T07:06:37.497Z,15.98
2022-10-23T07:09:04.024Z,15.68
2022-10-23T07:11:30.422Z,16.63
2022-10-23T07:13:56.832Z,17.23
2022-10-23T07:16:24.002Z,17.83
2022-10-23T07:18:55.727Z,17.83
2022-10-23T07:21:22.160Z,20.00
2022-10-23T07:23:48.523Z,15.45
2022-10-23T07:26:16.416Z,19.20
2022-10-23T07:28:45.237Z,16.77
2022-10-23T07:31:12.471Z,15.75
2022-10-23T07:33:38.946Z,18.48
2022-10-23T07:36:07.535Z,17.60
2022-10-23T07:38:34.971Z,17.30
2022-10-23T07:41:01.802Z,17.70
2022-10-23T07:43:28.414Z,15.90
2022-10-23T07:45:55.536Z,18.40
2022-10-23T07:48:22.384Z,18.00
2022-10-23T07:50:48.792Z,14.90
2022-10-23T07:53:24.241Z,16.70
2022-10-23T07:55:55.586Z,17.63
2022-10-23T07:58:22.461Z,18.23
2022-10-23T08:01:03.692Z,17.25
2022-10-23T08:03:32.701Z,19.80
2022-10-23T08:06:00.026Z,16.77
2022-10-23T08:08:26.561Z,19.05
2022-10-23T08:10:54.590Z,14.15
2022-10-23T08:13:22.051Z,15.65
2022-10-23T08:15:50.469Z,15.80
2022-10-23T08:18:17.401Z,15.33
2022-10-23T08:20:46.017Z,15.63
2022-10-23T08:23:13.757Z,17.00
2022-10-23T08:25:40.760Z,16.70
2022-10-23T08:28:08.791Z,17.30
2022-10-23T08:30:36.558Z,16.30
2022-10-23T08:33:04.549Z,17.77
2022-10-23T08:35:30.990Z,15.10
2022-10-23T08:37:57.431Z,15.95
2022-10-23T08:40:25.152Z,14.88
2022-10-23T08:43:13.203Z,15.47
2022-10-23T08:45:45.207Z,17.25
2022-10-23T08:48:32.978Z,16.30
2022-10-23T08:51:06.088Z,15.15
2022-10-23T08:53:53.156Z,13.68
2022-10-23T08:56:35.000Z,13.47
2022-10-23T08:59:28.977Z,12.65
2022-10-23T09:02:10.712Z,11.98
2022-10-23T09:04:37.573Z,13.38
2022-10-23T09:07:21.586Z,12.07
2022-10-23T09:10:06.688Z,12.73
2022-10-23T09:12:33.238Z,13.57
2022-10-23T09:15:05.477Z,12.40
2022-10-23T09:17:34.460Z,11.52
2022-10-23T09:20:23.743Z,12.57
2022-10-23T09:22:54.846Z,12.60
2022-10-23T09:25:27.559Z,12.73
2022-10-23T09:27:59.054Z,11.30
2022-10-23T09:30:37.330Z,11.73
2022-10-23T09:33:27.311Z,16.20
2022-10-23T09:36:18.303Z,15.27
2022-10-23T09:38:50.595Z,13.27
2022-10-23T09:41:36.576Z,12.52
2022-10-23T09:44:32.918Z,13.60
2022-10-23T09:47:08.980Z,13.40
2022-10-23T09:49:35.754Z,12.40
2022-10-23T09:52:05.016Z,14.13
2022-10-23T09:54:57.224Z,12.02
2022-10-23T09:57:41.873Z,10.73
2022-10-23T10:00:14.630Z,12.88
2022-10-23T10:02:43.652Z,11.77
2022-10-23T10:05:31.880Z,15.63
2022-10-23T10:08:13.623Z,12.95
2022-10-23T10:10:47.391Z,11.30
2022-10-23T10:13:32.481Z,14.70
2022-10-23T10:16:08.649Z,11.90
2022-10-23T10:18:50.356Z,13.60
2022-10-23T10:21:27.830Z,12.55
2022-10-23T10:23:57.261Z,13.13
2022-10-23T10:26:38.891Z,14.05
2022-10-23T10:29:27.058Z,14.80
2022-10-23T10:32:25.890Z,12.65
2022-10-23T10:35:07.158Z,11.15
2022-10-23T10:38:14.432Z,10.55
2022-10-23T10:41:10.224Z,10.70
2022-10-23T10:44:08.838Z,9.67
2022-10-23T10:46:47.635Z,12.48
2022-10-23T10:49:22.897Z,10.32
2022-10-23T10:51:58.440Z,11.73
2022-10-23T10:54:31.046Z,10.57
2022-10-23T10:57:00.164Z,10.87
2022-10-23T10:59:35.670Z,11.38
2022-10-23T11:02:19.797Z,11.60
2022-10-23T11:04:53.025Z,8.85
2022-10-23T11:07:23.703Z,12.23
2022-10-23T11:09:50.445Z,12.37
2022-10-23T11:12:21.645Z,10.52
2022-10-23T11:14:49.853Z,13.50
2022-10-23T11:17:21.509Z,11.60
2022-10-23T11:20:09.060Z,10.57
2022-10-23T11:22:42.958Z,12.10
2022-10-23T11:25:34.585Z,9.07
2022-10-23T11:28:35.557Z,13.38
2022-10-23T11:31:11.887Z,10.52
2022-10-23T11:34:13.651Z,9.18
2022-10-23T11:36:53.574Z,10.43
2022-10-23T11:39:21.448Z,8.70
2022-10-23T11:41:59.403Z,10.98
2022-10-23T11:44:38.020Z,11.00
2022-10-23T11:47:27.531Z,10.55
2022-10-23T11:50:09.136Z,10.77
2022-10-23T11:52:45.528Z,9.60
2022-10-23T11:55:18.917Z,9.95
2022-10-23T11:58:05.170Z,10.15
2022-10-23T12:00:34.028Z,11.02
2022-10-23T12:03:01.932Z,10.43
2022-10-23T12:05:34.051Z,12.30
2022-10-23T12:08:02.410Z,9.82
2022-10-23T12:10:36.006Z,14.05
2022-10-23T12:13:05.383Z,10.48
2022-10-23T12:15:34.630Z,11.10
2022-10-23T12:18:18.144Z,9.52
2022-10-23T12:21:01.783Z,11.48
2022-10-23T12:23:55.644Z,9.80
2022-10-23T12:26:43.336Z,10.50
2022-10-23T12:29:34.192Z,9.53
2022-10-23T12:32:24.176Z,8.73
2022-10-23T12:35:17.916Z,11.48
2022-10-23T12:38:01.538Z,8.80
2022-10-23T12:40:28.351Z,10.05
2022-10-23T12:42:56.174Z,10.87
2022-10-23T12:45:26.165Z,9.07
2022-10-23T12:47:53.790Z,9.82
2022-10-23T12:50:33.570Z,8.77
2022-10-23T12:53:03.089Z,8.80
2022-10-23T12:55:35.119Z,11.07
2022-10-23T12:58:02.506Z,11.88
2022-10-23T13:00:28.925Z,10.02
2022-10-23T13:03:00.785Z,8.45
2022-10-23T13:05:28.180Z,10.20
2022-10-23T13:07:56.869Z,13.43
2022-10-23T13:10:24.522Z,9.73
2022-10-23T13:12:55.848Z,9.63
2022-10-23T13:15:23.446Z,9.98
2022-10-23T13:17:55.927Z,12.32
2022-10-23T13:20:34.040Z,9.57
2022-10-23T13:23:12.208Z,10.43
2022-10-23T13:25:39.979Z,10.07
2022-10-23T13:28:20.805Z,9.07
2022-10-23T13:31:01.932Z,9.75
2022-10-23T13:33:34.769Z,10.83
2022-10-23T13:36:22.815Z,8.52
2022-10-23T13:39:11.186Z,9.25
2022-10-23T13:41:41.875Z,9.10
2022-10-23T13:44:11.813Z,10.63
2022-10-23T13:46:38.288Z,10.13
2022-10-23T13:49:04.750Z,9.02
2022-10-23T13:51:40.147Z,10.27
2022-10-23T13:54:16.163Z,10.85
2022-10-23T13:56:42.649Z,11.02
2022-10-23T13:59:10.934Z,9.07
2022-10-23T14:01:38.000Z,9.80
2022-10-23T14:04:05.643Z,9.82
2022-10-23T14:06:32.996Z,10.90
2022-10-23T14:08:59.445Z,9.80
2022-10-23T14:11:26.395Z,9.00
2022-10-23T14:13:52.783Z,9.02
2022-10-23T14:16:20.155Z,11.43
2022-10-23T14:18:47.156Z,9.18
2022-10-23T14:21:18.862Z,8.75
2022-10-23T14:23:46.030Z,9.60
2022-10-23T14:26:15.605Z,9.23
2022-10-23T14:28:42.811Z,9.40
2022-10-23T14:31:12.074Z,10.35
2022-10-23T14:33:39.557Z,8.52
2022-10-23T14:36:06.755Z,9.87
2022-10-23T14:38:33.605Z,12.88
2022-10-23T14:41:00.242Z,9.27
2022-10-23T14:43:26.683Z,9.90
2022-10-23T14:45:53.205Z,10.80
2022-10-23T14:48:19.669Z,9.97
2022-10-23T14:50:48.183Z,12.25
2022-10-23T14:53:15.791Z,12.68
2022-10-23T14:55:42.190Z,11.10
2022-10-23T14:58:08.623Z,10.50
2022-10-23T15:00:35.064Z,14.33
2022-10-23T15:03:01.483Z,13.43
2022-10-23T15:05:27.974Z,12.85
2022-10-23T15:07:55.452Z,12.20
2022-10-23T15:10:21.888Z,11.45
2022-10-23T15:12:48.327Z,16.57
2022-10-23T15:15:14.748Z,12.88
2022-10-23T15:17:41.191Z,9.38
2022-10-23T15:20:07.953Z,11.32
2022-10-23T15:22:34.425Z,9.00
2022-10-23T15:25:00.829Z,9.57
2022-10-23T15:27:27.248Z,10.23
2022-10-23T15:29:53.654Z,13.48
2022-10-23T15:32:20.071Z,17.52
2022-10-23T15:34:46.512Z,10.68
2022-10-23T15:37:12.922Z,13.00
2022-10-23T15:39:39.398Z,10.35
2022-10-23T15:42:06.443Z,10.25
2022-10-23T15:44:33.729Z,11.45
2022-10-23T15:47:00.416Z,11.40
2022-10-23T15:49:28.420Z,9.07
2022-10-23T15:51:55.131Z,9.02
2022-10-23T15:54:21.833Z,9.52
2022-10-23T15:56:50.878Z,10.25
2022-10-23T15:59:18.851Z,10.43
2022-10-23T16:01:45.416Z,9.40
2022-10-23T16:04:11.967Z,10.65
2022-10-23T16:06:38.420Z,16.10
2022-10-23T16:09:05.297Z,16.33
2022-10-23T16:11:35.104Z,15.85
2022-10-23T16:14:01.620Z,13.77
2022-10-23T16:16:28.417Z,14.10
2022-10-23T16:18:55.535Z,18.20
2022-10-23T16:21:24.623Z,12.65
2022-10-23T16:23:52.119Z,15.98
2022-10-23T16:26:19.440Z,15.37
2022-10-23T16:28:47.306Z,13.75
2022-10-23T16:31:19.982Z,8.88
2022-10-23T16:33:48.200Z,10.45
2022-10-23T16:36:14.696Z,12.10
2022-10-23T16:38:41.114Z,15.00
2022-10-23T16:41:07.598Z,14.82
2022-10-23T16:43:34.127Z,12.80
2022-10-23T16:46:06.292Z,11.85
2022-10-23T16:48:34.312Z,16.45
2022-10-23T16:51:04.399Z,13.67
2022-10-23T16:53:31.270Z,11.20
2022-10-23T16:55:58.094Z,10.25
2022-10-23T16:58:26.005Z,14.30
2022-10-23T17:01:07.073Z,12.57
2022-10-23T17:03:35.752Z,12.57
2022-10-23T17:06:06.122Z,11.55
2022-10-23T17:08:35.288Z,16.80
2022-10-23T17:11:15.577Z,13.38
2022-10-23T17:13:46.131Z,10.35
2022-10-23T17:16:16.420Z,9.73
2022-10-23T17:18:44.776Z,8.75
2022-10-23T17:21:13.136Z,9.77
2022-10-23T17:23:40.011Z,11.82
2022-10-23T17:26:11.405Z,10.77
2022-10-23T17:28:38.467Z,9.30
2022-10-23T17:31:05.244Z,11.32
2022-10-23T17:33:31.670Z,10.75
2022-10-23T17:36:01.694Z,9.77
2022-10-23T17:38:28.417Z,9.95
2022-10-23T17:40:54.830Z,10.10
2022-10-23T17:43:21.312Z,11.93
2022-10-23T17:45:47.767Z,10.63
2022-10-23T17:48:14.267Z,10.05
2022-10-23T17:50:41.182Z,11.75
2022-10-23T17:53:07.938Z,13.00
2022-10-23T17:55:41.630Z,12.27
2022-10-23T17:58:08.738Z,15.43
2022-10-23T18:00:36.807Z,11.00
2022-10-23T18:03:04.445Z,12.05
2022-10-23T18:05:32.478Z,9.13
2022-10-23T18:07:59.548Z,9.60
2022-10-23T18:10:26.118Z,10.52
2022-10-23T18:12:52.547Z,9.82
2022-10-23T18:15:18.957Z,12.25
2022-10-23T18:17:45.850Z,10.00
2022-10-23T18:20:12.741Z,10.02
2022-10-23T18:22:39.147Z,13.07
2022-10-23T18:25:06.128Z,10.38
2022-10-23T18:27:32.672Z,10.45
2022-10-23T18:29:59.113Z,10.23
2022-10-23T18:32:25.483Z,10.57
2022-10-23T18:34:51.881Z,11.80
2022-10-23T18:37:18.354Z,10.98
2022-10-23T18:39:44.823Z,13.10
2022-10-23T18:42:11.226Z,11.87
2022-10-23T18:44:37.772Z,10.43
2022-10-23T18:47:04.284Z,9.13
2022-10-23T18:49:30.769Z,9.18
2022-10-23T18:51:57.395Z,8.43
2022-10-23T18:54:23.817Z,8.97
2022-10-23T18:56:50.371Z,10.65
2022-10-23T18:59:19.977Z,8.63
2022-10-23T19:01:46.664Z,6.75
2022-10-23T19:04:13.592Z,8.43
2022-10-23T19:06:40.004Z,8.63
2022-10-23T19:09:08.817Z,6.93
2022-10-23T19:11:36.281Z,8.18
2022-10-23T19:14:03.175Z,7.00
2022-10-23T19:16:43.865Z,8.02
2022-10-23T19:19:19.494Z,7.37
2022-10-23T19:21:47.256Z,7.85
2022-10-23T19:24:19.069Z,6.70
2022-10-23T19:26:46.024Z,5.63
2022-10-23T19:29:18.297Z,8.73
2022-10-23T19:31:47.102Z,8.70
2022-10-23T19:34:13.501Z,7.22
2022-10-23T19:36:40.014Z,8.57
2022-10-23T19:39:06.399Z,8.48
2022-10-23T19:41:32.930Z,6.03
2022-10-23T19:43:59.376Z,7.40
2022-10-23T19:46:25.830Z,6.30
2022-10-23T19:48:52.269Z,7.88
2022-10-23T19:51:18.770Z,7.03
2022-10-23T19:53:45.245Z,6.93
2022-10-23T19:56:12.295Z,7.70
2022-10-23T19:58:39.400Z,6.32
2022-10-23T20:01:10.335Z,6.65
2022-10-23T20:03:37.757Z,7.10
2022-10-23T20:06:04.277Z,7.03
2022-10-23T20:08:32.777Z,7.83
2022-10-23T20:11:01.616Z,8.30
2022-10-23T20:13:28.121Z,7.28
2022-10-23T20:15:54.571Z,6.68
2022-10-23T20:18:21.034Z,6.80
2022-10-23T20:20:47.483Z,7.50
2022-10-23T20:23:13.913Z,7.13
2022-10-23T20:25:40.377Z,6.05
2022-10-23T20:28:09.092Z,7.10
2022-10-23T20:30:42.168Z,6.78
2022-10-23T20:33:09.053Z,6.53
2022-10-23T20:35:43.640Z,7.05
2022-10-23T20:38:10.272Z,6.80
2022-10-23T20:40:37.124Z,7.22
2022-10-23T20:43:03.987Z,7.05
2022-10-23T20:45:30.430Z,7.57
2022-10-23T20:47:57.366Z,6.95
2022-10-23T20:50:23.777Z,6.55
2022-10-23T20:52:50.629Z,7.47
2022-10-23T20:55:17.193Z,7.68
2022-10-23T20:57:43.879Z,7.53
2022-10-23T21:00:11.071Z,6.30
2022-10-23T21:02:37.546Z,8.18
2022-10-23T21:05:04.351Z,6.13
2022-10-23T21:07:30.783Z,6.35
2022-10-23T21:09:57.198Z,6.63
2022-10-23T21:12:23.576Z,7.60
2022-10-23T21:14:49.958Z,7.10
2022-10-23T21:17:16.370Z,7.28
2022-10-23T21:19:42.804Z,8.07
2022-10-23T21:22:09.165Z,7.70
2022-10-23T21:24:35.640Z,9.02
2022-10-23T21:27:02.054Z,9.45
2022-10-23T21:29:28.536Z,9.02
2022-10-23T21:31:59.890Z,9.98
2022-10-23T21:34:27.182Z,8.03
2022-10-23T21:37:12.967Z,9.40
2022-10-23T21:39:40.637Z,11.27
2022-10-23T21:42:07.052Z,7.15
2022-10-23T21:44:33.479Z,7.60
2022-10-23T21:46:59.876Z,7.87
2022-10-23T21:49:26.371Z,7.53
2022-10-23T21:51:52.753Z,7.07
2022-10-23T21:54:19.163Z,10.00
2022-10-23T21:56:48.478Z,10.68
2022-10-23T21:59:19.219Z,11.30
2022-10-23T22:01:47.581Z,12.18
2022-10-23T22:04:15.772Z,9.18
2022-10-23T22:06:43.600Z,10.30
2022-10-23T22:09:13.042Z,9.75
2022-10-23T22:11:39.683Z,11.83
2022-10-23T22:14:06.222Z,9.05
2022-10-23T22:16:32.843Z,10.18
2022-10-23T22:18:59.260Z,10.05
2022-10-23T22:21:28.449Z,11.48
2022-10-23T22:23:57.110Z,8.67
2022-10-23T22:26:27.515Z,9.90
2022-10-23T22:28:56.467Z,14.18
2022-10-23T22:31:25.612Z,11.30
2022-10-23T22:33:52.982Z,15.15
2022-10-23T22:36:20.064Z,10.53
2022-10-23T22:38:46.718Z,13.20
2022-10-23T22:41:13.296Z,10.18
2022-10-23T22:43:39.972Z,9.98
2022-10-23T22:46:10.406Z,9.02
2022-10-23T22:48:37.273Z,10.73
2022-10-23T22:51:07.277Z,9.90
2022-10-23T22:53:35.641Z,11.93
2022-10-23T22:56:06.553Z,12.65
2022-10-23T22:58:33.533Z,12.57
2022-10-23T23:01:25.360Z,10.77
2022-10-23T23:03:52.697Z,10.90
2022-10-23T23:06:20.240Z,11.25
2022-10-23T23:08:47.391Z,11.15
2022-10-23T23:11:15.731Z,13.23
2022-10-23T23:13:43.149Z,12.00
2022-10-23T23:16:18.172Z,12.35
2022-10-23T23:18:44.708Z,12.80
2022-10-23T23:21:11.065Z,9.77
2022-10-23T23:23:37.458Z,9.95
2022-10-23T23:26:06.631Z,11.73
2022-10-23T23:28:33.533Z,9.85
2022-10-23T23:31:13.477Z,13.98
2022-10-23T23:33:39.913Z,13.20
2022-10-23T23:36:12.104Z,9.57
2022-10-23T23:38:39.262Z,10.90
2022-10-23T23:41:06.961Z,10.30
2022-10-23T23:43:33.529Z,12.10
2022-10-23T23:45:59.908Z,12.02
2022-10-23T23:48:26.399Z,13.60
2022-10-23T23:50:52.856Z,12.43
2022-10-23T23:53:19.254Z,10.65
2022-10-23T23:55:46.688Z,10.55
2022-10-23T23:58:13.324Z,10.18
